Time;durP1;ratioP1;P1;durP2;ratioP2;P2;SDS_P1;SDS_P2;PMS_P1;PMS_P2;Temp;Humidity;BMP_temperature;BMP_pressure;BME280_temperature;BME280_humidity;BME280_pressure;Samples;Min_cycle;Max_cycle;Signal;HPM_P1;HPM_P2
2022/07/25 00:02:25;;;;;;;0.30;0.30;;;23.50;99.00;;;;;;5062743;28;20036;-78
2022/07/25 00:04:51;;;;;;;0.22;0.22;;;23.50;99.00;;;;;;5061597;28;20048;-79
2022/07/25 00:07:17;;;;;;;0.20;0.20;;;23.50;99.10;;;;;;5057620;28;20040;-79
2022/07/25 00:09:43;;;;;;;0.20;0.20;;;23.50;99.10;;;;;;5052310;28;20044;-79
2022/07/25 00:12:08;;;;;;;0.20;0.20;;;23.40;99.10;;;;;;5071100;28;20416;-78
2022/07/25 00:14:34;;;;;;;0.20;0.20;;;23.40;99.20;;;;;;5055628;28;20055;-78
2022/07/25 00:17:02;;;;;;;0.20;0.20;;;23.40;99.30;;;;;;5076332;28;20119;-78
2022/07/25 00:19:28;;;;;;;0.20;0.20;;;23.50;99.30;;;;;;5058801;28;20489;-78
2022/07/25 00:21:54;;;;;;;0.20;0.20;;;23.40;99.30;;;;;;5077096;28;20126;-78
2022/07/25 00:24:20;;;;;;;0.20;0.20;;;23.40;99.30;;;;;;5084811;28;20089;-78
2022/07/25 00:26:45;;;;;;;0.20;0.20;;;23.40;99.40;;;;;;5085771;28;20072;-78
2022/07/25 00:29:11;;;;;;;0.25;0.25;;;23.40;99.40;;;;;;5083505;28;20047;-79
2022/07/25 00:31:36;;;;;;;0.10;0.10;;;23.40;99.50;;;;;;5081927;28;20489;-78
2022/07/25 00:34:02;;;;;;;0.20;0.20;;;23.40;99.60;;;;;;5078875;28;20514;-78
2022/07/25 00:36:28;;;;;;;0.20;0.20;;;23.40;99.70;;;;;;5086326;28;20093;-78
2022/07/25 00:38:54;;;;;;;0.25;0.25;;;23.40;99.60;;;;;;5071202;28;20044;-78
2022/07/25 00:41:19;;;;;;;0.20;0.20;;;23.30;99.70;;;;;;5069252;28;20121;-78
2022/07/25 00:43:48;;;;;;;0.20;0.20;;;23.30;99.70;;;;;;5071755;28;20048;-78
2022/07/25 00:46:15;;;;;;;0.20;0.20;;;23.30;99.70;;;;;;5074871;28;20044;-78
2022/07/25 00:48:41;;;;;;;0.20;0.20;;;23.20;99.80;;;;;;5077964;28;20509;-79
2022/07/25 00:51:08;;;;;;;0.20;0.20;;;23.20;99.90;;;;;;5066808;28;20148;-79
2022/07/25 00:53:35;;;;;;;0.20;0.20;;;23.20;99.90;;;;;;5070043;28;20040;-78
2022/07/25 00:56:04;;;;;;;0.20;0.20;;;23.20;99.90;;;;;;5072498;28;20053;-79
2022/07/25 00:58:30;;;;;;;0.20;0.20;;;23.20;99.90;;;;;;5070850;28;20071;-79
2022/07/25 01:00:56;;;;;;;0.20;0.20;;;23.20;99.90;;;;;;5073684;28;20036;-79
2022/07/25 01:03:22;;;;;;;0.20;0.20;;;23.20;99.90;;;;;;5074780;28;20040;-78
2022/07/25 01:05:49;;;;;;;0.20;0.20;;;23.20;99.90;;;;;;5081337;28;20043;-79
2022/07/25 01:08:17;;;;;;;0.20;0.20;;;23.10;99.90;;;;;;5075115;28;20048;-78
2022/07/25 01:10:43;;;;;;;0.10;0.10;;;23.10;99.90;;;;;;5075112;28;20051;-78
2022/07/25 01:13:09;;;;;;;0.17;0.17;;;23.10;99.90;;;;;;5076843;28;20459;-78
2022/07/25 01:15:34;;;;;;;0.20;0.20;;;23.00;99.90;;;;;;5062257;28;20041;-79
2022/07/25 01:18:00;;;;;;;0.20;0.20;;;23.00;99.90;;;;;;5068678;28;20052;-78
2022/07/25 01:20:28;;;;;;;0.20;0.20;;;23.00;99.90;;;;;;5074236;28;20067;-78
2022/07/25 01:22:59;;;;;;;0.20;0.20;;;22.80;99.90;;;;;;5074557;28;20048;-78
2022/07/25 01:25:26;;;;;;;0.20;0.20;;;23.00;99.90;;;;;;5061587;28;20480;-79
2022/07/25 01:27:52;;;;;;;0.20;0.20;;;22.90;99.90;;;;;;5067555;28;20044;-79
2022/07/25 01:30:19;;;;;;;0.20;0.20;;;23.00;99.90;;;;;;5072857;28;20353;-79
2022/07/25 01:32:45;;;;;;;0.20;0.20;;;22.90;99.90;;;;;;5085710;28;20408;-79
2022/07/25 01:35:13;;;;;;;0.20;0.20;;;22.90;99.90;;;;;;5060625;28;20090;-78
2022/07/25 01:37:41;;;;;;;0.20;0.20;;;22.90;99.90;;;;;;5069051;28;20749;-78
2022/07/25 01:40:14;;;;;;;0.20;0.20;;;22.80;99.90;;;;;;5072344;28;20042;-79
2022/07/25 01:42:40;;;;;;;0.20;0.20;;;22.80;99.90;;;;;;5058438;28;20036;-78
2022/07/25 01:45:06;;;;;;;0.20;0.20;;;22.80;99.90;;;;;;5059030;28;20684;-79
2022/07/25 01:47:35;;;;;;;0.20;0.20;;;22.80;99.90;;;;;;5074411;28;20028;-79
2022/07/25 01:50:04;;;;;;;0.20;0.20;;;22.70;99.90;;;;;;5066294;28;20049;-79
2022/07/25 01:52:33;;;;;;;0.20;0.20;;;22.60;99.90;;;;;;5072523;28;20064;-79
2022/07/25 01:54:58;;;;;;;0.20;0.20;;;22.70;99.90;;;;;;5071387;28;20872;-78
2022/07/25 01:57:24;;;;;;;0.20;0.20;;;22.60;99.90;;;;;;5066324;28;20041;-79
2022/07/25 01:59:50;;;;;;;0.20;0.20;;;22.60;99.90;;;;;;5067862;28;20044;-78
2022/07/25 02:02:15;;;;;;;0.20;0.20;;;22.60;99.90;;;;;;5070095;28;20132;-78
2022/07/25 02:04:41;;;;;;;0.20;0.20;;;22.60;99.90;;;;;;5068906;28;20046;-79
2022/07/25 02:07:06;;;;;;;0.20;0.20;;;22.60;99.90;;;;;;5079422;28;20090;-80
2022/07/25 02:09:33;;;;;;;0.20;0.20;;;22.50;99.90;;;;;;5066721;28;20056;-78
2022/07/25 02:11:59;;;;;;;0.20;0.20;;;22.50;99.90;;;;;;5072503;28;20055;-79
2022/07/25 02:14:25;;;;;;;0.20;0.20;;;22.40;99.90;;;;;;5082785;28;20418;-78
2022/07/25 02:16:50;;;;;;;0.20;0.20;;;22.40;99.90;;;;;;5059481;28;20044;-79
2022/07/25 02:19:32;;;;;;;0.20;0.20;;;22.30;99.90;;;;;;5082085;28;20036;-80
2022/07/25 02:21:57;;;;;;;0.20;0.20;;;22.30;99.90;;;;;;5071761;28;20040;-80
2022/07/25 02:24:23;;;;;;;0.20;0.20;;;22.20;99.90;;;;;;5057883;28;20041;-80
2022/07/25 02:26:48;;;;;;;0.20;0.20;;;22.20;99.90;;;;;;5065972;28;20043;-80
2022/07/25 02:29:14;;;;;;;0.30;0.30;;;22.10;99.90;;;;;;5070831;28;20048;-79
2022/07/25 02:31:40;;;;;;;0.20;0.20;;;22.10;99.90;;;;;;5066478;28;20377;-80
2022/07/25 02:34:05;;;;;;;0.20;0.20;;;22.10;99.90;;;;;;5072910;28;20097;-80
2022/07/25 02:36:31;;;;;;;0.20;0.20;;;22.10;99.90;;;;;;5068296;28;20055;-80
2022/07/25 02:38:57;;;;;;;0.20;0.20;;;22.00;99.90;;;;;;5064799;28;20048;-79
2022/07/25 02:41:22;;;;;;;0.20;0.20;;;22.00;99.90;;;;;;5076910;28;20043;-80
2022/07/25 02:43:48;;;;;;;0.20;0.20;;;22.00;99.90;;;;;;5069798;28;20289;-80
2022/07/25 02:46:14;;;;;;;0.20;0.20;;;22.00;99.90;;;;;;5071310;28;20051;-78
2022/07/25 02:48:39;;;;;;;0.20;0.20;;;22.00;99.90;;;;;;5079933;28;20099;-78
2022/07/25 02:51:05;;;;;;;0.20;0.20;;;22.00;99.90;;;;;;5069306;28;20087;-78
2022/07/25 02:53:31;;;;;;;0.20;0.20;;;22.00;99.90;;;;;;5071311;28;20040;-78
2022/07/25 02:55:56;;;;;;;0.20;0.20;;;22.00;99.90;;;;;;5063138;28;20503;-78
2022/07/25 02:58:22;;;;;;;0.20;0.20;;;22.00;99.90;;;;;;5066854;28;20052;-78
2022/07/25 03:00:53;;;;;;;0.20;0.20;;;22.00;99.90;;;;;;5076520;28;20052;-78
2022/07/25 03:03:19;;;;;;;0.20;0.20;;;21.90;99.90;;;;;;5064942;28;20044;-78
2022/07/25 03:05:45;;;;;;;0.20;0.20;;;21.90;99.90;;;;;;5058043;28;20541;-78
2022/07/25 03:08:10;;;;;;;0.20;0.20;;;22.00;99.90;;;;;;5068367;28;20045;-78
2022/07/25 03:10:36;;;;;;;0.20;0.20;;;22.00;99.90;;;;;;5069327;28;20035;-79
2022/07/25 03:13:02;;;;;;;0.20;0.20;;;22.00;99.90;;;;;;5066318;28;20045;-78
2022/07/25 03:15:27;;;;;;;0.20;0.20;;;21.90;99.90;;;;;;5077978;28;20082;-79
2022/07/25 03:17:53;;;;;;;0.20;0.20;;;21.90;99.90;;;;;;5069648;28;20040;-78
2022/07/25 03:20:21;;;;;;;0.20;0.20;;;22.00;99.90;;;;;;5077895;28;20142;-79
2022/07/25 03:22:47;;;;;;;0.20;0.20;;;21.90;99.90;;;;;;5062569;28;20116;-78
2022/07/25 03:25:12;;;;;;;0.20;0.20;;;22.00;99.90;;;;;;5061554;28;20419;-79
2022/07/25 03:27:38;;;;;;;0.20;0.20;;;21.90;99.90;;;;;;5058301;28;20562;-78
2022/07/25 03:30:04;;;;;;;0.20;0.20;;;21.90;99.90;;;;;;5074754;28;20085;-79
2022/07/25 03:32:30;;;;;;;0.20;0.20;;;21.90;99.90;;;;;;5059775;28;20044;-79
2022/07/25 03:34:56;;;;;;;0.20;0.20;;;21.90;99.90;;;;;;5062561;28;20927;-79
2022/07/25 03:37:21;;;;;;;0.20;0.20;;;21.80;99.90;;;;;;5079456;28;20131;-80
2022/07/25 03:39:47;;;;;;;0.10;0.10;;;21.80;99.90;;;;;;5068607;28;20036;-79
2022/07/25 03:42:12;;;;;;;0.20;0.20;;;21.80;99.90;;;;;;5069219;28;20040;-78
2022/07/25 03:44:38;;;;;;;0.20;0.20;;;21.80;99.90;;;;;;5087332;28;20044;-78
2022/07/25 03:47:04;;;;;;;0.30;0.30;;;21.80;99.90;;;;;;5072116;28;20036;-78
2022/07/25 03:49:30;;;;;;;0.20;0.20;;;21.80;99.90;;;;;;5068139;28;20098;-78
2022/07/25 03:51:56;;;;;;;0.20;0.20;;;21.80;99.90;;;;;;5066926;28;20528;-78
2022/07/25 03:54:22;;;;;;;0.20;0.20;;;21.80;99.90;;;;;;5064056;28;20060;-78
2022/07/25 03:56:49;;;;;;;0.20;0.20;;;21.80;99.90;;;;;;5072393;28;20044;-79
2022/07/25 03:59:18;;;;;;;0.20;0.20;;;21.80;99.90;;;;;;5059687;28;20040;-79
2022/07/25 04:01:45;;;;;;;0.20;0.20;;;21.80;99.90;;;;;;5067314;28;20040;-79
2022/07/25 04:04:11;;;;;;;0.20;0.20;;;21.80;99.90;;;;;;5067846;28;20108;-79
2022/07/25 04:06:38;;;;;;;0.20;0.20;;;21.80;99.90;;;;;;5075580;28;20083;-79
2022/07/25 04:09:06;;;;;;;0.13;0.13;;;21.80;99.90;;;;;;5071559;28;20048;-80
2022/07/25 04:11:31;;;;;;;0.13;0.13;;;21.80;99.90;;;;;;5055087;28;20071;-79
2022/07/25 04:13:57;;;;;;;0.10;0.10;;;21.80;99.90;;;;;;5067536;28;20102;-79
2022/07/25 04:16:23;;;;;;;0.20;0.20;;;21.80;99.90;;;;;;5065509;28;20036;-79
2022/07/25 04:18:50;;;;;;;0.20;0.20;;;21.70;99.90;;;;;;5061297;28;20090;-79
2022/07/25 04:21:16;;;;;;;0.20;0.20;;;21.70;99.90;;;;;;5052023;28;20037;-79
2022/07/25 04:23:42;;;;;;;0.20;0.20;;;21.70;99.90;;;;;;5065506;28;20044;-79
2022/07/25 04:26:07;;;;;;;0.20;0.20;;;21.70;99.90;;;;;;5063751;28;20036;-79
2022/07/25 04:28:33;;;;;;;0.20;0.20;;;21.70;99.90;;;;;;5070596;28;20048;-79
2022/07/25 04:30:59;;;;;;;0.20;0.20;;;21.70;99.90;;;;;;5070022;28;20100;-78
2022/07/25 04:33:28;;;;;;;0.20;0.20;;;21.70;99.90;;;;;;5068498;28;20040;-79
2022/07/25 04:35:54;;;;;;;0.20;0.20;;;21.70;99.90;;;;;;5064797;28;20048;-80
2022/07/25 04:38:19;;;;;;;0.20;0.20;;;21.70;99.90;;;;;;5078393;28;20051;-80
2022/07/25 04:40:48;;;;;;;0.20;0.20;;;21.60;99.90;;;;;;5074481;28;20708;-79
2022/07/25 04:43:14;;;;;;;0.20;0.20;;;21.70;99.90;;;;;;5071895;28;20156;-80
2022/07/25 04:45:39;;;;;;;0.20;0.20;;;21.70;99.90;;;;;;5086990;28;20036;-79
2022/07/25 04:48:06;;;;;;;0.20;0.20;;;21.70;99.90;;;;;;5082322;28;20028;-78
2022/07/25 04:50:31;;;;;;;0.20;0.20;;;21.70;99.90;;;;;;5049914;28;20467;-78
2022/07/25 04:52:57;;;;;;;0.20;0.20;;;21.80;99.90;;;;;;5077052;28;20119;-78
2022/07/25 04:55:23;;;;;;;0.20;0.20;;;21.80;99.90;;;;;;5057304;28;20225;-79
2022/07/25 04:57:49;;;;;;;0.13;0.13;;;21.80;99.90;;;;;;5052724;28;20132;-80
2022/07/25 05:00:15;;;;;;;0.20;0.20;;;21.80;99.90;;;;;;5058488;28;20041;-79
2022/07/25 05:02:41;;;;;;;0.20;0.20;;;21.80;99.90;;;;;;5057730;28;20052;-79
2022/07/25 05:05:07;;;;;;;0.20;0.20;;;21.80;99.90;;;;;;5060145;28;20056;-80
2022/07/25 05:07:34;;;;;;;0.20;0.20;;;21.80;99.90;;;;;;5078111;28;20131;-80
2022/07/25 05:10:00;;;;;;;0.20;0.20;;;21.80;99.90;;;;;;5070713;28;20893;-79
2022/07/25 05:12:26;;;;;;;0.20;0.20;;;21.80;99.90;;;;;;5067857;28;20129;-79
2022/07/25 05:14:54;;;;;;;0.20;0.20;;;21.80;99.90;;;;;;5067397;28;20126;-79
2022/07/25 05:17:22;;;;;;;0.20;0.20;;;21.80;99.90;;;;;;5070934;28;20072;-79
2022/07/25 05:19:48;;;;;;;0.20;0.20;;;21.90;99.90;;;;;;5061993;28;20128;-80
2022/07/25 05:22:14;;;;;;;0.20;0.20;;;21.90;99.90;;;;;;5064203;28;20094;-79
2022/07/25 05:24:39;;;;;;;0.20;0.20;;;21.90;99.90;;;;;;5060468;28;20045;-80
2022/07/25 05:27:05;;;;;;;0.20;0.20;;;21.90;99.90;;;;;;5068192;28;20112;-80
2022/07/25 05:29:31;;;;;;;0.20;0.20;;;21.90;99.90;;;;;;5070230;28;20044;-79
2022/07/25 05:31:57;;;;;;;0.20;0.20;;;21.90;99.90;;;;;;5076021;28;20083;-79
2022/07/25 05:34:23;;;;;;;0.20;0.20;;;21.90;99.90;;;;;;5070260;28;20381;-79
2022/07/25 05:36:49;;;;;;;0.20;0.20;;;21.90;99.90;;;;;;5073020;28;20047;-79
2022/07/25 05:39:14;;;;;;;0.20;0.20;;;21.90;99.90;;;;;;5070296;28;20553;-80
2022/07/25 05:41:40;;;;;;;0.20;0.20;;;22.00;99.90;;;;;;5081623;28;20037;-80
2022/07/25 05:44:06;;;;;;;0.20;0.20;;;22.00;99.90;;;;;;5063930;28;20044;-79
2022/07/25 05:46:32;;;;;;;0.20;0.20;;;22.00;99.90;;;;;;5072215;28;20040;-80
2022/07/25 05:48:58;;;;;;;0.20;0.20;;;21.90;99.90;;;;;;5070549;28;20094;-80
2022/07/25 05:51:23;;;;;;;0.20;0.20;;;22.10;99.90;;;;;;5070113;28;20079;-80
2022/07/25 05:53:49;;;;;;;0.20;0.20;;;22.10;99.90;;;;;;5080727;28;20447;-79
2022/07/25 05:56:15;;;;;;;0.20;0.20;;;22.10;99.90;;;;;;5072675;28;20048;-79
2022/07/25 05:58:41;;;;;;;0.20;0.20;;;22.10;99.90;;;;;;5061494;28;20526;-79
2022/07/25 06:01:10;;;;;;;0.20;0.20;;;22.20;99.90;;;;;;5065676;28;20041;-79
2022/07/25 06:03:35;;;;;;;0.20;0.20;;;22.20;99.90;;;;;;5075638;28;20524;-79
2022/07/25 06:06:01;;;;;;;0.20;0.20;;;22.20;99.90;;;;;;5073953;28;20043;-80
2022/07/25 06:08:29;;;;;;;0.20;0.20;;;22.30;99.90;;;;;;5076189;28;20045;-79
2022/07/25 06:10:58;;;;;;;0.20;0.20;;;22.20;99.90;;;;;;5065602;28;20040;-79
2022/07/25 06:13:25;;;;;;;0.20;0.20;;;22.40;99.90;;;;;;5052460;28;20044;-79
2022/07/25 06:15:57;;;;;;;0.20;0.20;;;22.40;99.90;;;;;;5061340;28;20389;-80
2022/07/25 06:18:23;;;;;;;0.20;0.20;;;22.40;99.90;;;;;;5065928;28;20090;-79
2022/07/25 06:20:49;;;;;;;0.20;0.20;;;22.50;99.90;;;;;;5067962;28;20074;-79
2022/07/25 06:23:18;;;;;;;0.20;0.20;;;22.50;99.90;;;;;;5063298;28;20511;-79
2022/07/25 06:25:45;;;;;;;0.20;0.20;;;22.50;99.90;;;;;;5060835;28;20488;-80
2022/07/25 06:28:13;;;;;;;0.20;0.20;;;22.60;99.90;;;;;;5057747;28;20044;-80
2022/07/25 06:30:43;;;;;;;0.20;0.20;;;22.60;99.90;;;;;;5069040;28;20056;-78
2022/07/25 06:33:09;;;;;;;0.20;0.20;;;22.60;99.90;;;;;;5065082;28;20033;-77
2022/07/25 06:35:34;;;;;;;0.20;0.20;;;22.60;99.90;;;;;;5067804;28;20056;-78
2022/07/25 06:38:04;;;;;;;0.20;0.20;;;22.70;99.90;;;;;;5068487;28;20398;-78
2022/07/25 06:40:29;;;;;;;0.20;0.20;;;22.80;99.90;;;;;;5052277;28;20129;-78
2022/07/25 06:42:55;;;;;;;0.20;0.20;;;22.80;99.90;;;;;;5076891;28;20438;-77
2022/07/25 06:45:24;;;;;;;0.25;0.25;;;22.80;99.90;;;;;;5069541;28;20067;-82
2022/07/25 06:47:49;;;;;;;0.17;0.17;;;22.90;99.90;;;;;;5078451;28;20079;-85
2022/07/25 06:50:18;;;;;;;0.10;0.10;;;23.00;99.90;;;;;;5080669;28;20083;-83
2022/07/25 06:52:45;;;;;;;0.20;0.20;;;23.00;99.90;;;;;;5082181;28;20125;-84
2022/07/25 06:55:17;;;;;;;0.20;0.20;;;23.10;99.90;;;;;;5067265;28;20049;-82
2022/07/25 06:57:43;;;;;;;0.20;0.20;;;23.20;99.90;;;;;;5068403;28;20052;-82
2022/07/25 07:00:11;;;;;;;0.20;0.20;;;23.30;99.90;;;;;;5065616;28;20052;-84
2022/07/25 07:03:06;;;;;;;0.20;0.20;;;23.40;99.90;;;;;;5063014;28;20083;-83
2022/07/25 07:05:35;;;;;;;0.20;0.20;;;23.50;99.90;;;;;;5065190;28;20052;-84
2022/07/25 07:08:01;;;;;;;0.20;0.20;;;23.50;99.90;;;;;;5068674;28;20044;-84
2022/07/25 07:10:27;;;;;;;0.22;0.22;;;23.50;99.90;;;;;;5064787;28;20033;-84
2022/07/25 07:13:08;;;;;;;0.20;0.20;;;23.60;99.90;;;;;;5080116;28;20055;-84
2022/07/25 07:15:35;;;;;;;0.20;0.20;;;23.60;99.90;;;;;;5067396;28;20056;-86
2022/07/25 07:18:04;;;;;;;0.20;0.20;;;23.60;99.90;;;;;;5067761;28;21587;-84
2022/07/25 07:20:30;;;;;;;0.20;0.20;;;23.70;99.90;;;;;;5066133;28;20100;-83
2022/07/25 07:22:55;;;;;;;0.20;0.20;;;23.70;99.90;;;;;;5071500;28;20396;-82
2022/07/25 07:25:22;;;;;;;0.20;0.20;;;23.70;99.90;;;;;;5080136;28;20039;-83
2022/07/25 07:27:50;;;;;;;0.20;0.20;;;23.70;99.90;;;;;;5069634;28;20041;-85
2022/07/25 07:30:19;;;;;;;0.20;0.20;;;23.80;99.90;;;;;;5068765;28;21733;-85
2022/07/25 07:32:45;;;;;;;0.20;0.20;;;23.80;99.90;;;;;;5065440;28;20103;-83
2022/07/25 07:35:11;;;;;;;0.20;0.20;;;23.80;99.90;;;;;;5056291;28;20039;-83
2022/07/25 07:37:37;;;;;;;0.20;0.20;;;23.90;99.90;;;;;;5082676;28;20045;-82
2022/07/25 07:40:03;;;;;;;0.20;0.20;;;23.90;99.90;;;;;;5067672;28;20052;-82
2022/07/25 07:42:37;;;;;;;0.30;0.30;;;24.00;99.90;;;;;;5065116;28;20033;-84
2022/07/25 07:45:10;;;;;;;0.20;0.20;;;24.00;99.90;;;;;;5062192;28;20074;-86
2022/07/25 07:47:35;;;;;;;0.20;0.20;;;24.10;99.90;;;;;;5068874;28;20071;-84
2022/07/25 07:50:01;;;;;;;0.20;0.20;;;24.10;99.90;;;;;;5069451;28;20476;-83
2022/07/25 07:52:27;;;;;;;0.20;0.20;;;24.10;99.90;;;;;;5070745;28;20068;-83
2022/07/25 07:57:37;;;;;;;0.20;0.20;;;24.20;99.90;;;;;;5062253;28;20056;-82
2022/07/25 08:00:03;;;;;;;0.20;0.20;;;24.20;99.90;;;;;;5062846;28;20110;-84
2022/07/25 08:02:29;;;;;;;0.20;0.20;;;24.20;99.90;;;;;;5065059;28;20399;-84
2022/07/25 08:04:54;;;;;;;0.30;0.30;;;24.30;99.90;;;;;;5069285;28;20052;-84
2022/07/25 08:07:20;;;;;;;0.20;0.20;;;24.30;99.90;;;;;;5069967;28;20044;-83
2022/07/25 08:09:45;;;;;;;0.20;0.20;;;24.30;99.90;;;;;;5071543;28;20055;-84
2022/07/25 08:12:11;;;;;;;0.20;0.20;;;24.30;99.90;;;;;;5056467;28;20551;-84
2022/07/25 08:14:37;;;;;;;0.20;0.20;;;24.30;99.90;;;;;;5064282;28;20052;-84
2022/07/25 08:17:02;;;;;;;0.20;0.20;;;24.30;99.90;;;;;;5068171;28;20049;-83
2022/07/25 08:19:28;;;;;;;0.20;0.20;;;24.40;99.90;;;;;;5070057;28;20408;-83
2022/07/25 08:21:54;;;;;;;0.20;0.20;;;24.40;99.90;;;;;;5059922;28;20128;-84
2022/07/25 08:24:19;;;;;;;0.20;0.20;;;24.40;99.90;;;;;;5048481;28;20049;-84
2022/07/25 08:26:45;;;;;;;0.20;0.20;;;24.40;99.90;;;;;;5060243;28;20037;-83
2022/07/25 08:29:10;;;;;;;0.20;0.20;;;24.40;99.90;;;;;;5074659;28;20041;-85
2022/07/25 08:31:36;;;;;;;0.20;0.20;;;24.50;99.90;;;;;;5060465;28;20049;-84
2022/07/25 08:34:02;;;;;;;0.20;0.20;;;24.50;99.90;;;;;;5066651;28;20400;-86
2022/07/25 08:36:28;;;;;;;0.20;0.20;;;24.50;99.90;;;;;;5050187;28;20090;-83
2022/07/25 08:38:53;;;;;;;0.20;0.20;;;24.50;99.90;;;;;;5049816;28;20037;-83
2022/07/25 08:41:19;;;;;;;0.20;0.20;;;24.50;99.90;;;;;;5049304;28;20048;-83
2022/07/25 08:43:48;;;;;;;0.20;0.20;;;24.50;99.90;;;;;;5057043;28;20056;-85
2022/07/25 08:46:15;;;;;;;0.20;0.20;;;24.40;99.80;;;;;;5060964;28;20045;-83
2022/07/25 08:48:41;;;;;;;0.22;0.22;;;24.40;99.90;;;;;;5060202;28;20156;-83
2022/07/25 08:51:10;;;;;;;0.20;0.20;;;24.40;99.90;;;;;;5055246;28;20493;-84
2022/07/25 08:53:36;;;;;;;0.20;0.20;;;24.40;99.90;;;;;;5072694;28;20044;-83
2022/07/25 08:56:06;;;;;;;0.20;0.20;;;24.30;99.90;;;;;;5067749;28;20037;-82
2022/07/25 08:58:32;;;;;;;0.20;0.20;;;24.30;99.90;;;;;;5073630;28;20135;-83
2022/07/25 09:00:57;;;;;;;0.20;0.20;;;24.20;99.90;;;;;;5068893;28;20127;-83
2022/07/25 09:03:28;;;;;;;0.10;0.10;;;24.20;99.90;;;;;;5073180;28;20045;-83
2022/07/25 09:05:54;;;;;;;0.20;0.20;;;24.20;99.90;;;;;;5088787;28;20127;-83
2022/07/25 09:08:20;;;;;;;0.20;0.20;;;24.20;99.90;;;;;;5093522;28;20131;-83
2022/07/25 09:10:53;;;;;;;0.20;0.20;;;24.20;99.90;;;;;;5074414;28;20142;-84
2022/07/25 09:13:22;;;;;;;0.20;0.20;;;24.20;99.90;;;;;;5073394;28;20052;-83
2022/07/25 09:15:55;;;;;;;0.20;0.20;;;24.20;99.90;;;;;;5071019;28;20131;-87
2022/07/25 09:18:23;;;;;;;0.20;0.20;;;24.20;99.90;;;;;;5066880;28;20052;-85
2022/07/25 09:20:55;;;;;;;0.20;0.20;;;24.30;99.90;;;;;;5052534;28;20140;-84
2022/07/25 09:23:28;;;;;;;0.20;0.20;;;24.30;99.90;;;;;;5071612;28;20101;-83
2022/07/25 09:26:12;;;;;;;0.20;0.20;;;24.30;99.90;;;;;;5070454;28;20472;-83
2022/07/25 09:28:50;;;;;;;0.20;0.20;;;24.30;99.90;;;;;;5074263;28;20043;-83
2022/07/25 09:31:17;;;;;;;0.20;0.20;;;24.40;99.90;;;;;;5062134;28;20052;-85
2022/07/25 09:33:55;;;;;;;0.22;0.22;;;24.40;99.90;;;;;;5060597;28;20047;-83
2022/07/25 09:36:22;;;;;;;0.20;0.20;;;24.40;99.90;;;;;;5075475;28;20055;-84
2022/07/25 09:39:05;;;;;;;0.20;0.20;;;24.50;99.90;;;;;;5055930;28;20552;-83
2022/07/25 09:41:35;;;;;;;0.20;0.20;;;24.50;99.90;;;;;;5056916;28;20080;-83
2022/07/25 09:44:01;;;;;;;0.20;0.20;;;24.60;99.90;;;;;;5053622;28;20377;-84
2022/07/25 09:46:31;;;;;;;0.20;0.20;;;24.50;99.60;;;;;;5068782;28;20204;-84
2022/07/25 09:48:57;;;;;;;0.20;0.20;;;24.50;99.70;;;;;;5055349;28;20555;-84
2022/07/25 09:51:27;;;;;;;0.20;0.20;;;24.50;99.50;;;;;;5055464;28;20036;-87
2022/07/25 09:53:53;;;;;;;0.20;0.20;;;24.50;99.00;;;;;;5056893;28;20048;-87
2022/07/25 09:56:19;;;;;;;0.20;0.20;;;24.50;99.20;;;;;;5068428;28;20101;-82
2022/07/25 09:58:45;;;;;;;0.20;0.20;;;24.60;99.40;;;;;;5053614;28;21773;-85
2022/07/25 10:01:16;;;;;;;0.20;0.20;;;24.60;99.20;;;;;;5070658;28;20049;-83
2022/07/25 10:04:03;;;;;;;0.20;0.20;;;24.70;98.80;;;;;;5078148;28;20048;-83
2022/07/25 10:06:48;;;;;;;0.20;0.20;;;24.70;97.80;;;;;;5084730;28;20175;-84
2022/07/25 10:09:15;;;;;;;0.20;0.20;;;24.70;97.60;;;;;;5061087;28;20049;-86
2022/07/25 10:12:08;;;;;;;0.20;0.20;;;24.70;97.20;;;;;;5058134;28;20496;-84
2022/07/25 10:14:34;;;;;;;0.20;0.20;;;24.70;96.80;;;;;;5053987;28;20044;-84
2022/07/25 10:17:00;;;;;;;0.20;0.20;;;24.70;97.00;;;;;;5056212;28;20058;-89
2022/07/25 10:19:49;;;;;;;0.20;0.20;;;24.70;96.90;;;;;;5061164;28;20139;-87
2022/07/25 10:22:14;;;;;;;0.20;0.20;;;24.70;96.70;;;;;;5054699;28;20037;-91
2022/07/25 10:24:45;;;;;;;0.20;0.20;;;24.60;96.70;;;;;;5060354;28;20365;-86
2022/07/25 10:27:13;;;;;;;0.20;0.20;;;24.50;96.70;;;;;;5069026;28;20039;-86
2022/07/25 10:29:42;;;;;;;0.20;0.20;;;24.40;96.80;;;;;;5078441;28;20063;-88
2022/07/25 10:32:10;;;;;;;0.17;0.17;;;24.30;97.20;;;;;;5054830;28;20052;-87
2022/07/25 10:34:37;;;;;;;0.20;0.20;;;24.30;97.50;;;;;;5052824;28;20400;-90
2022/07/25 10:37:15;;;;;;;0.20;0.20;;;24.20;97.90;;;;;;5064255;28;20040;-92
2022/07/25 10:39:45;;;;;;;0.20;0.20;;;24.20;97.90;;;;;;5059675;28;20037;-90
2022/07/25 10:42:16;;;;;;;0.20;0.20;;;24.10;97.70;;;;;;5053227;28;20053;-87
2022/07/25 10:44:43;;;;;;;;;;;24.00;98.00;;;;;;5064937;28;20037;-87
2022/07/25 10:47:11;;;;;;;0.20;0.20;;;23.90;98.50;;;;;;5072402;28;19924;-89
2022/07/25 10:49:40;;;;;;;0.20;0.20;;;23.90;98.90;;;;;;5055216;28;20041;-89
2022/07/25 10:52:06;;;;;;;0.20;0.20;;;23.80;99.30;;;;;;5075641;28;20060;-84
2022/07/25 10:54:34;;;;;;;0.20;0.20;;;23.80;99.60;;;;;;5086130;28;20092;-88
2022/07/25 10:57:03;;;;;;;0.20;0.20;;;23.70;99.90;;;;;;5071967;28;20065;-88
2022/07/25 10:59:39;;;;;;;0.20;0.20;;;23.70;99.90;;;;;;5055202;28;20131;-88
2022/07/25 11:02:15;;;;;;;0.20;0.20;;;23.70;99.90;;;;;;5054192;28;20083;-86
2022/07/25 11:04:42;;;;;;;0.20;0.20;;;23.60;99.90;;;;;;5054757;28;20132;-87
2022/07/25 11:07:13;;;;;;;0.20;0.20;;;23.60;99.90;;;;;;5052868;28;20493;-88
2022/07/25 11:09:39;;;;;;;;;;;23.70;99.90;;;;;;5053793;28;20076;-89
2022/07/25 11:12:06;;;;;;;0.20;0.20;;;23.80;99.90;;;;;;5055847;28;19966;-86
2022/07/25 11:14:41;;;;;;;0.20;0.20;;;23.90;99.90;;;;;;5057210;28;20037;-88
2022/07/25 11:17:13;;;;;;;0.20;0.20;;;24.00;99.90;;;;;;5086572;28;20047;-88
2022/07/25 11:19:41;;;;;;;0.20;0.20;;;24.10;99.90;;;;;;5068801;28;20045;-86
2022/07/25 11:22:07;;;;;;;0.20;0.20;;;24.10;99.90;;;;;;5073068;28;20036;-89
2022/07/25 11:24:44;;;;;;;0.20;0.20;;;24.10;99.90;;;;;;5082667;28;20443;-89
2022/07/25 11:27:12;;;;;;;0.20;0.20;;;24.20;99.90;;;;;;5063106;28;20057;-87
2022/07/25 11:29:39;;;;;;;0.20;0.20;;;24.30;99.90;;;;;;5069913;28;20105;-87
2022/07/25 11:32:10;;;;;;;0.20;0.20;;;24.30;99.90;;;;;;5085410;28;20437;-88
2022/07/25 11:34:40;;;;;;;0.20;0.20;;;24.30;99.90;;;;;;5076075;28;20380;-87
2022/07/25 11:37:07;;;;;;;0.20;0.20;;;24.30;99.90;;;;;;5078249;28;20033;-88
2022/07/25 11:39:35;;;;;;;0.20;0.20;;;24.30;99.90;;;;;;5059242;28;20049;-86
2022/07/25 11:42:22;;;;;;;0.20;0.20;;;24.40;99.90;;;;;;5066909;28;20037;-85
2022/07/25 11:44:50;;;;;;;0.20;0.20;;;24.40;99.90;;;;;;5056411;28;20037;-86
2022/07/25 11:47:25;;;;;;;0.20;0.20;;;24.50;99.90;;;;;;5053284;28;20162;-84
2022/07/25 11:49:56;;;;;;;0.20;0.20;;;24.50;99.90;;;;;;5060136;28;20036;-86
2022/07/25 11:52:23;;;;;;;0.20;0.20;;;24.60;99.90;;;;;;5067469;28;20086;-88
2022/07/25 11:54:54;;;;;;;0.20;0.20;;;24.60;99.90;;;;;;5075003;28;20044;-90
2022/07/25 11:57:26;;;;;;;0.20;0.20;;;24.60;99.90;;;;;;5053597;28;20136;-90
2022/07/25 11:59:52;;;;;;;0.20;0.20;;;24.60;99.90;;;;;;5089220;28;20055;-84
2022/07/25 12:02:26;;;;;;;0.20;0.20;;;24.50;99.90;;;;;;5072363;28;20550;-88
2022/07/25 12:05:04;;;;;;;0.20;0.20;;;24.40;99.90;;;;;;5053772;28;20045;-83
2022/07/25 12:07:47;;;;;;;0.20;0.20;;;24.30;99.90;;;;;;5056232;28;20393;-82
2022/07/25 12:10:36;;;;;;;0.20;0.20;;;24.30;99.90;;;;;;5058952;28;20052;-83
2022/07/25 12:13:03;;;;;;;0.20;0.20;;;24.20;99.90;;;;;;5056237;28;20056;-86
2022/07/25 12:15:35;;;;;;;0.20;0.20;;;24.20;99.90;;;;;;5052733;28;20053;-81
2022/07/25 12:18:02;;;;;;;0.20;0.20;;;24.20;99.90;;;;;;5065336;28;20072;-82
2022/07/25 12:20:38;;;;;;;0.20;0.20;;;24.20;99.90;;;;;;5058171;28;20041;-84
2022/07/25 12:23:07;;;;;;;0.20;0.20;;;24.30;99.90;;;;;;5054447;28;20073;-82
2022/07/25 12:25:35;;;;;;;0.20;0.20;;;24.30;99.90;;;;;;5050438;28;20052;-84
2022/07/25 12:28:01;;;;;;;0.20;0.20;;;24.30;99.90;;;;;;5066230;28;20062;-81
2022/07/25 12:30:28;;;;;;;0.20;0.20;;;24.30;99.90;;;;;;5068715;28;20041;-81
2022/07/25 12:32:55;;;;;;;0.20;0.20;;;24.40;99.90;;;;;;5062650;28;20131;-80
2022/07/25 12:35:24;;;;;;;0.20;0.20;;;24.40;99.90;;;;;;5054210;28;20132;-82
2022/07/25 12:37:54;;;;;;;0.20;0.20;;;24.40;99.90;;;;;;5061451;28;20067;-81
2022/07/25 12:40:20;;;;;;;0.20;0.20;;;24.50;99.90;;;;;;5054139;28;20051;-82
2022/07/25 12:42:46;;;;;;;0.20;0.20;;;24.50;99.90;;;;;;5058797;28;20489;-82
2022/07/25 12:45:14;;;;;;;0.20;0.20;;;24.50;99.90;;;;;;5069868;28;20075;-81
2022/07/25 12:47:42;;;;;;;0.20;0.20;;;24.50;99.60;;;;;;5067249;28;20048;-82
2022/07/25 12:50:08;;;;;;;0.20;0.20;;;24.50;99.80;;;;;;5065173;28;20103;-81
2022/07/25 12:52:34;;;;;;;0.20;0.20;;;24.40;99.20;;;;;;5074935;28;20044;-82
2022/07/25 12:55:00;;;;;;;0.20;0.20;;;24.40;98.90;;;;;;5064081;28;20053;-80